メインページ
METAR-TAF:

METAR-TAF

空港 :

ヤップ国際空港

ヤップ州, ミクロネシア

緯度: 09-29N, 経度: 138-05E, 海抜: 28m

現時点の気象観測

当レポートは23分前の09:53(UTC)に作成
西/南西の風 8kt
気温 29°C
湿度 79%
気圧 1008 hPa
視程: 19.3km
高度1700ftの雲はほとんどない
高度30000ftの千切れ雲あり

METAR: PTYA 180953Z 24008KT 12SM FEW017 BKN300 29/25 A2978 RMK SLP084 T02890252

時間: 20:16 (10:16 UTC)

予報

当レポートは4時間56分前の05:20(UTC)に作成
予報は18日の 06時(UTC)から 19日の 06時(UTC)まで有効
南西の風 12kt
視程: 10km
高度1600ftの雲は散在している
高度3000ftの雲は散在している
近辺でにわか雨

TAF: PTYA 180520Z 1806/1906 23012KT P6SM VCSH SCT016 SCT030

4,000以上の空港の気象観測と天気予報(METAR報とTAF報)

利用可能な観測所は地図上に黄色い丸と赤い丸で示す。

丸の上にカーソルを重ねると観測所名を参照できる。

次にクリックすると気象観測と天気予報を参照できる。

マップの切り替え:黒色「×」印の緑ボタンをクリックして拡大、「-」印の緑ボタンをクリックして縮小、緑色の三角印をクリックして隣りの地図に切り替え


METAR-TAF: